createdAt,value
2022-11-20T00:00:26.039Z,-7.23
2022-11-20T00:01:26.047Z,-7.27
2022-11-20T00:02:26.164Z,-7.28
2022-11-20T00:03:25.953Z,-7.32
2022-11-20T00:04:25.978Z,-7.34
2022-11-20T00:05:25.954Z,-7.35
2022-11-20T00:06:26.436Z,-7.41
2022-11-20T00:07:25.974Z,-7.38
2022-11-20T00:08:25.987Z,-7.37
2022-11-20T00:09:25.966Z,-7.39
2022-11-20T00:10:25.966Z,-7.37
2022-11-20T00:11:25.902Z,-7.39
2022-11-20T00:12:25.835Z,-7.39
2022-11-20T00:13:25.839Z,-7.41
2022-11-20T00:14:25.823Z,-7.41
2022-11-20T00:15:25.813Z,-7.46
2022-11-20T00:16:25.829Z,-7.38
2022-11-20T00:17:25.793Z,-7.42
2022-11-20T00:18:25.764Z,-7.32
2022-11-20T00:19:25.756Z,-7.34
2022-11-20T00:20:25.753Z,-7.29
2022-11-20T00:21:25.796Z,-7.29
2022-11-20T00:22:25.720Z,-7.29
2022-11-20T00:23:25.741Z,-7.29
2022-11-20T00:24:25.702Z,-7.34
2022-11-20T00:25:25.691Z,-7.37
2022-11-20T00:26:25.705Z,-7.39
2022-11-20T00:27:25.668Z,-7.41
2022-11-20T00:28:25.652Z,-7.46
2022-11-20T00:29:25.642Z,-7.47
2022-11-20T00:30:25.630Z,-7.55
2022-11-20T00:31:25.703Z,-7.55
2022-11-20T00:32:25.610Z,-7.52
2022-11-20T00:33:25.620Z,-7.52
2022-11-20T00:34:25.586Z,-7.49
2022-11-20T00:35:25.569Z,-7.45
2022-11-20T00:36:25.595Z,-7.45
2022-11-20T00:37:25.547Z,-7.47
2022-11-20T00:38:25.539Z,-7.45
2022-11-20T00:39:25.517Z,-7.46
2022-11-20T00:40:25.510Z,-7.46
2022-11-20T00:41:25.544Z,-7.47
2022-11-20T00:42:25.488Z,-7.47
2022-11-20T00:43:25.470Z,-7.49
2022-11-20T00:44:25.607Z,-7.53
2022-11-20T00:45:25.557Z,-7.49
2022-11-20T00:46:25.466Z,-7.57
2022-11-20T00:47:25.427Z,-7.59
2022-11-20T00:48:25.415Z,-7.64
2022-11-20T00:49:25.405Z,-7.62
2022-11-20T00:50:25.395Z,-7.70
2022-11-20T00:51:25.404Z,-7.67
2022-11-20T00:52:25.572Z,-7.68
2022-11-20T00:53:25.345Z,-7.66
2022-11-20T00:54:25.423Z,-7.60
2022-11-20T00:55:25.324Z,-7.62
2022-11-20T00:56:25.360Z,-7.59
2022-11-20T00:57:25.314Z,-7.60
2022-11-20T00:58:26.066Z,-7.55
2022-11-20T00:59:25.283Z,-7.49
2022-11-20T01:00:25.273Z,-7.55
2022-11-20T01:01:25.529Z,-7.59
2022-11-20T01:02:25.292Z,-7.59
2022-11-20T01:03:27.174Z,-7.62
2022-11-20T01:04:25.233Z,-7.64
2022-11-20T01:05:25.237Z,-7.67
2022-11-20T01:06:25.205Z,-7.71
2022-11-20T01:07:25.230Z,-7.71
2022-11-20T01:08:25.180Z,-7.68
2022-11-20T01:09:25.174Z,-7.73
2022-11-20T01:10:25.162Z,-7.68
2022-11-20T01:11:25.143Z,-7.71
2022-11-20T01:12:25.159Z,-7.67
2022-11-20T01:13:25.879Z,-7.68
2022-11-20T01:14:25.134Z,-7.70
2022-11-20T01:15:25.104Z,-7.67
2022-11-20T01:16:25.081Z,-7.62
2022-11-20T01:17:25.099Z,-7.59
2022-11-20T01:18:25.069Z,-7.57
2022-11-20T01:19:25.524Z,-7.59
2022-11-20T01:20:25.034Z,-7.57
2022-11-20T01:21:25.049Z,-7.64
2022-11-20T01:22:25.039Z,-7.70
2022-11-20T01:23:25.002Z,-7.67
2022-11-20T01:24:25.006Z,-7.67
2022-11-20T01:25:24.974Z,-7.68
2022-11-20T01:26:24.966Z,-7.68
2022-11-20T01:27:24.975Z,-7.68
2022-11-20T01:28:24.952Z,-7.68
2022-11-20T01:29:25.246Z,-7.68
2022-11-20T01:30:24.915Z,-7.66
2022-11-20T01:31:24.897Z,-7.67
2022-11-20T01:32:24.948Z,-7.67
2022-11-20T01:33:24.885Z,-7.67
2022-11-20T01:34:24.875Z,-7.66
2022-11-20T01:35:24.843Z,-7.66
2022-11-20T01:36:24.847Z,-7.57
2022-11-20T01:37:24.875Z,-7.55
2022-11-20T01:38:24.824Z,-7.57
2022-11-20T01:39:25.044Z,-7.57
2022-11-20T01:40:24.815Z,-7.57
2022-11-20T01:41:24.784Z,-7.53
2022-11-20T01:42:24.824Z,-7.56
2022-11-20T01:43:24.763Z,-7.52
2022-11-20T01:44:24.752Z,-7.50
2022-11-20T01:45:24.735Z,-7.52
2022-11-20T01:46:24.730Z,-7.47
2022-11-20T01:47:24.794Z,-7.47
2022-11-20T01:48:24.707Z,-7.45
2022-11-20T01:49:24.680Z,-7.45
2022-11-20T01:50:24.711Z,-7.41
2022-11-20T01:51:24.661Z,-7.31
2022-11-20T01:52:24.699Z,-7.31
2022-11-20T01:53:24.647Z,-7.24
2022-11-20T01:54:24.629Z,-7.27
2022-11-20T01:55:24.627Z,-7.21
2022-11-20T01:56:24.600Z,-7.23
2022-11-20T01:57:24.632Z,-7.18
2022-11-20T01:58:24.580Z,-7.20
2022-11-20T01:59:24.559Z,-7.16
2022-11-20T02:00:24.581Z,-7.11
2022-11-20T02:01:24.564Z,-7.10
2022-11-20T02:02:24.607Z,-7.08
2022-11-20T02:03:24.518Z,-7.07
2022-11-20T02:04:24.516Z,-7.03
2022-11-20T02:05:24.495Z,-7.02
2022-11-20T02:06:24.488Z,-6.96
2022-11-20T02:07:24.516Z,-6.98
2022-11-20T02:08:24.466Z,-6.96
2022-11-20T02:09:24.460Z,-6.93
2022-11-20T02:10:24.436Z,-6.90
2022-11-20T02:11:24.421Z,-6.84
2022-11-20T02:12:24.436Z,-6.84
2022-11-20T02:13:24.404Z,-6.79
2022-11-20T02:14:24.385Z,-6.74
2022-11-20T02:15:28.999Z,-6.67
2022-11-20T02:16:25.376Z,-6.64
2022-11-20T02:17:24.409Z,-6.59
2022-11-20T02:18:24.346Z,-6.55
2022-11-20T02:19:24.354Z,-6.48
2022-11-20T02:20:24.338Z,-6.44
2022-11-20T02:21:24.304Z,-6.45
2022-11-20T02:22:24.334Z,-6.39
2022-11-20T02:23:24.275Z,-6.39
2022-11-20T02:24:24.276Z,-6.38
2022-11-20T02:25:45.252Z,-6.38
2022-11-20T02:26:24.250Z,-6.34
2022-11-20T02:27:24.261Z,-6.31
2022-11-20T02:28:24.238Z,-6.24
2022-11-20T02:29:24.211Z,-6.21
2022-11-20T02:30:24.209Z,-6.24
2022-11-20T02:31:24.188Z,-6.21
2022-11-20T02:32:24.208Z,-6.20
2022-11-20T02:33:24.151Z,-6.16
2022-11-20T02:34:24.160Z,-6.10
2022-11-20T02:35:24.134Z,-6.05
2022-11-20T02:36:24.287Z,-6.08
2022-11-20T02:37:24.140Z,-6.02
2022-11-20T02:38:24.098Z,-5.98
2022-11-20T02:39:24.181Z,-5.96
2022-11-20T02:40:24.095Z,-5.91
2022-11-20T02:41:24.059Z,-5.92
2022-11-20T02:42:24.081Z,-5.90
2022-11-20T02:43:24.037Z,-5.85
2022-11-20T02:44:24.025Z,-5.87
2022-11-20T02:45:24.023Z,-5.88
2022-11-20T02:46:24.011Z,-5.82
2022-11-20T02:47:24.022Z,-5.85
2022-11-20T02:48:25.324Z,-5.84
2022-11-20T02:49:24.191Z,-5.84
2022-11-20T02:50:23.963Z,-5.87
2022-11-20T02:51:23.952Z,-5.85
2022-11-20T02:52:23.955Z,-5.88
2022-11-20T02:53:23.976Z,-5.88
2022-11-20T02:54:23.915Z,-5.88
2022-11-20T02:55:23.894Z,-5.85
2022-11-20T02:56:23.887Z,-5.85
2022-11-20T02:57:23.894Z,-5.81
2022-11-20T02:58:23.863Z,-5.80
2022-11-20T02:59:23.928Z,-5.80
2022-11-20T03:00:23.844Z,-5.78
2022-11-20T03:01:24.828Z,-5.77
2022-11-20T03:02:23.842Z,-5.71
2022-11-20T03:03:23.831Z,-5.73
2022-11-20T03:04:23.791Z,-5.71
2022-11-20T03:05:23.786Z,-5.70
2022-11-20T03:06:23.769Z,-5.69
2022-11-20T03:07:23.810Z,-5.66
2022-11-20T03:08:23.751Z,-5.69
2022-11-20T03:09:23.990Z,-5.70
2022-11-20T03:10:23.724Z,-5.70
2022-11-20T03:11:23.703Z,-5.71
2022-11-20T03:12:23.725Z,-5.70
2022-11-20T03:13:23.801Z,-5.69
2022-11-20T03:14:23.669Z,-5.69
2022-11-20T03:15:23.651Z,-5.73
2022-11-20T03:16:23.642Z,-5.71
2022-11-20T03:17:23.656Z,-5.73
2022-11-20T03:18:23.629Z,-5.80
2022-11-20T03:19:23.849Z,-5.80
2022-11-20T03:20:23.600Z,-5.78
2022-11-20T03:21:23.580Z,-5.82
2022-11-20T03:22:23.600Z,-5.82
2022-11-20T03:23:23.561Z,-5.84
2022-11-20T03:24:23.629Z,-5.88
2022-11-20T03:25:23.530Z,-5.90
2022-11-20T03:26:23.530Z,-5.96
2022-11-20T03:27:23.546Z,-5.96
2022-11-20T03:28:23.508Z,-5.96
2022-11-20T03:29:23.677Z,-6.00
2022-11-20T03:30:27.615Z,-6.03
2022-11-20T03:31:24.458Z,-6.03
2022-11-20T03:32:23.502Z,-6.06
2022-11-20T03:33:23.436Z,-6.02
2022-11-20T03:34:23.439Z,-6.05
2022-11-20T03:35:23.407Z,-6.09
2022-11-20T03:36:23.407Z,-6.14
2022-11-20T03:37:23.415Z,-6.13
2022-11-20T03:38:23.374Z,-6.14
2022-11-20T03:39:23.684Z,-6.17
2022-11-20T03:40:23.366Z,-6.16
2022-11-20T03:41:23.343Z,-6.14
2022-11-20T03:42:23.358Z,-6.17
2022-11-20T03:43:23.315Z,-6.14
2022-11-20T03:44:23.310Z,-6.19
2022-11-20T03:45:23.304Z,-6.14
2022-11-20T03:46:23.292Z,-6.20
2022-11-20T03:47:23.292Z,-6.19
2022-11-20T03:48:23.251Z,-6.17
2022-11-20T03:49:23.440Z,-6.16
2022-11-20T03:50:23.232Z,-6.17
2022-11-20T03:51:23.262Z,-6.21
2022-11-20T03:52:23.241Z,-6.20
2022-11-20T03:53:23.191Z,-6.24
2022-11-20T03:54:23.182Z,-6.24
2022-11-20T03:55:23.172Z,-6.27
2022-11-20T03:56:23.160Z,-6.29
2022-11-20T03:57:23.181Z,-6.24
2022-11-20T03:58:23.140Z,-6.32
2022-11-20T03:59:23.409Z,-6.31
2022-11-20T04:00:23.118Z,-6.34
2022-11-20T04:01:23.184Z,-6.35
2022-11-20T04:02:23.132Z,-6.37
2022-11-20T04:03:23.078Z,-6.38
2022-11-20T04:04:23.067Z,-6.39
2022-11-20T04:05:23.048Z,-6.42
2022-11-20T04:06:23.055Z,-6.47
2022-11-20T04:07:23.103Z,-6.45
2022-11-20T04:08:23.017Z,-6.48
2022-11-20T04:09:23.382Z,-6.45
2022-11-20T04:10:22.997Z,-6.52
2022-11-20T04:11:22.998Z,-6.50
2022-11-20T04:12:23.009Z,-6.55
2022-11-20T04:13:22.948Z,-6.52
2022-11-20T04:14:22.945Z,-6.59
2022-11-20T04:15:22.931Z,-6.56
2022-11-20T04:16:22.926Z,-6.64
2022-11-20T04:17:23.014Z,-6.67
2022-11-20T04:18:22.905Z,-6.66
2022-11-20T04:19:23.324Z,-6.69
2022-11-20T04:20:22.906Z,-6.74
2022-11-20T04:21:22.862Z,-6.75
2022-11-20T04:22:22.896Z,-6.75
2022-11-20T04:23:28.429Z,-6.77
2022-11-20T04:24:23.830Z,-6.75
2022-11-20T04:25:22.811Z,-6.77
2022-11-20T04:26:22.815Z,-6.78
2022-11-20T04:27:22.818Z,-6.77
2022-11-20T04:28:22.773Z,-6.77
2022-11-20T04:29:23.084Z,-6.81
2022-11-20T04:30:22.757Z,-6.78
2022-11-20T04:31:22.732Z,-6.81
2022-11-20T04:32:22.781Z,-6.89
2022-11-20T04:33:22.722Z,-6.89
2022-11-20T04:34:22.710Z,-6.90
2022-11-20T04:35:22.692Z,-6.92
2022-11-20T04:36:22.684Z,-6.92
2022-11-20T04:37:22.711Z,-6.90
2022-11-20T04:38:22.661Z,-6.92
2022-11-20T04:39:22.887Z,-6.95
2022-11-20T04:40:22.631Z,-6.96
2022-11-20T04:41:22.649Z,-6.95
2022-11-20T04:42:22.609Z,-6.92
2022-11-20T04:43:22.621Z,-6.90
2022-11-20T04:44:22.579Z,-6.93
2022-11-20T04:45:22.576Z,-6.92
2022-11-20T04:46:22.568Z,-6.93
2022-11-20T04:47:22.551Z,-6.95
2022-11-20T04:48:22.570Z,-6.99
2022-11-20T04:49:22.843Z,-6.99
2022-11-20T04:50:22.518Z,-6.99
2022-11-20T04:51:22.525Z,-6.99
2022-11-20T04:52:22.488Z,-7.03
2022-11-20T04:53:22.514Z,-7.02
2022-11-20T04:54:22.473Z,-7.02
2022-11-20T04:55:22.472Z,-7.00
2022-11-20T04:56:22.438Z,-6.99
2022-11-20T04:57:22.436Z,-6.99
2022-11-20T04:58:22.445Z,-7.05
2022-11-20T04:59:22.686Z,-7.02
2022-11-20T05:00:22.395Z,-7.05
2022-11-20T05:01:22.468Z,-7.07
2022-11-20T05:02:22.389Z,-7.10
2022-11-20T05:03:22.445Z,-7.08
2022-11-20T05:04:23.167Z,-7.07
2022-11-20T05:05:22.344Z,-7.07
2022-11-20T05:06:22.330Z,-7.10
2022-11-20T05:07:22.383Z,-7.08
2022-11-20T05:08:22.338Z,-7.14
2022-11-20T05:09:22.598Z,-7.13
2022-11-20T05:10:22.271Z,-7.16
2022-11-20T05:11:22.264Z,-7.17
2022-11-20T05:12:22.241Z,-7.21
2022-11-20T05:13:22.271Z,-7.20
2022-11-20T05:14:22.224Z,-7.18
2022-11-20T05:15:22.212Z,-7.24
2022-11-20T05:16:22.203Z,-7.23
2022-11-20T05:17:22.202Z,-7.28
2022-11-20T05:18:22.202Z,-7.31
2022-11-20T05:19:22.322Z,-7.31
2022-11-20T05:20:22.151Z,-7.29
2022-11-20T05:21:22.151Z,-7.32
2022-11-20T05:22:22.141Z,-7.29
2022-11-20T05:23:22.186Z,-7.35
2022-11-20T05:24:22.108Z,-7.35
2022-11-20T05:25:22.109Z,-7.38
2022-11-20T05:26:22.077Z,-7.37
2022-11-20T05:27:22.078Z,-7.42
2022-11-20T05:28:22.129Z,-7.41
2022-11-20T05:29:22.279Z,-7.39
2022-11-20T05:30:22.037Z,-7.39
2022-11-20T05:31:26.569Z,-7.45
2022-11-20T05:32:23.007Z,-7.41
2022-11-20T05:33:22.035Z,-7.42
2022-11-20T05:34:22.056Z,-7.39
2022-11-20T05:35:26.103Z,-7.41
2022-11-20T05:36:21.994Z,-7.41
2022-11-20T05:37:21.963Z,-7.49
2022-11-20T05:38:22.257Z,-7.49
2022-11-20T05:39:22.070Z,-7.52
2022-11-20T05:40:21.915Z,-7.56
2022-11-20T05:41:21.923Z,-7.55
2022-11-20T05:42:21.896Z,-7.53
2022-11-20T05:43:21.924Z,-7.56
2022-11-20T05:44:21.864Z,-7.57
2022-11-20T05:45:21.854Z,-7.57
2022-11-20T05:46:27.644Z,-7.57
2022-11-20T05:47:22.855Z,-7.55
2022-11-20T05:48:21.858Z,-7.53
2022-11-20T05:49:22.014Z,-7.56
2022-11-20T05:50:21.802Z,-7.56
2022-11-20T05:51:21.804Z,-7.57
2022-11-20T05:52:21.786Z,-7.59
2022-11-20T05:53:21.792Z,-7.66
2022-11-20T05:54:21.752Z,-7.60
2022-11-20T05:55:21.744Z,-7.62
2022-11-20T05:56:21.727Z,-7.60
2022-11-20T05:57:21.719Z,-7.57
2022-11-20T05:58:21.743Z,-7.62
2022-11-20T05:59:22.042Z,-7.64
2022-11-20T06:00:21.694Z,-7.64
2022-11-20T06:01:21.688Z,-7.62
2022-11-20T06:02:21.705Z,-7.60
2022-11-20T06:03:21.689Z,-7.59
2022-11-20T06:04:21.629Z,-7.59
2022-11-20T06:05:21.630Z,-7.64
2022-11-20T06:06:21.628Z,-7.62
2022-11-20T06:07:21.628Z,-7.62
2022-11-20T06:08:21.622Z,-7.67
2022-11-20T06:09:21.757Z,-7.66
2022-11-20T06:10:21.558Z,-7.67
2022-11-20T06:11:21.558Z,-7.68
2022-11-20T06:12:21.537Z,-7.62
2022-11-20T06:13:21.568Z,-7.62
2022-11-20T06:14:21.467Z,-7.57
2022-11-20T06:15:21.507Z,-7.59
2022-11-20T06:16:21.451Z,-7.59
2022-11-20T06:17:21.435Z,-7.57
2022-11-20T06:18:21.446Z,-7.62
2022-11-20T06:19:21.681Z,-7.62
2022-11-20T06:20:21.395Z,-7.64
2022-11-20T06:21:21.392Z,-7.56
2022-11-20T06:22:21.373Z,-7.59
2022-11-20T06:23:21.394Z,-7.59
2022-11-20T06:24:21.334Z,-7.60
2022-11-20T06:25:21.331Z,-7.66
2022-11-20T06:26:21.314Z,-7.66
2022-11-20T06:27:21.304Z,-7.67
2022-11-20T06:28:21.319Z,-7.71
2022-11-20T06:29:21.636Z,-7.74
2022-11-20T06:30:21.275Z,-7.73
2022-11-20T06:31:21.266Z,-7.74
2022-11-20T06:32:21.243Z,-7.70
2022-11-20T06:33:21.272Z,-7.77
2022-11-20T06:34:21.219Z,-7.78
2022-11-20T06:35:21.219Z,-7.82
2022-11-20T06:36:21.199Z,-7.82
2022-11-20T06:37:21.190Z,-7.80
2022-11-20T06:38:21.225Z,-7.85
2022-11-20T06:39:21.378Z,-7.91
2022-11-20T06:40:21.150Z,-7.87
2022-11-20T06:41:21.231Z,-7.84
2022-11-20T06:42:21.170Z,-7.89
2022-11-20T06:43:21.148Z,-7.89
2022-11-20T06:44:21.099Z,-7.87
2022-11-20T06:45:21.102Z,-7.85
2022-11-20T06:46:21.094Z,-7.89
2022-11-20T06:47:21.069Z,-7.85
2022-11-20T06:48:21.080Z,-7.88
2022-11-20T06:49:21.942Z,-7.89
2022-11-20T06:50:21.028Z,-7.89
2022-11-20T06:51:21.049Z,-7.87
2022-11-20T06:52:21.007Z,-7.85
2022-11-20T06:53:21.048Z,-7.82
2022-11-20T06:54:20.987Z,-7.84
2022-11-20T06:55:20.978Z,-7.87
2022-11-20T06:56:20.996Z,-7.87
2022-11-20T06:57:21.106Z,-7.85
2022-11-20T06:58:20.970Z,-7.88
2022-11-20T06:59:21.218Z,-7.89
2022-11-20T07:00:21.001Z,-7.87
2022-11-20T07:01:20.954Z,-7.87
2022-11-20T07:02:20.885Z,-7.88
2022-11-20T07:03:20.915Z,-7.88
2022-11-20T07:04:20.974Z,-7.87
2022-11-20T07:05:20.864Z,-7.84
2022-11-20T07:06:20.844Z,-7.88
2022-11-20T07:07:20.909Z,-7.87
2022-11-20T07:08:20.857Z,-7.85
2022-11-20T07:09:21.029Z,-7.82
2022-11-20T07:10:20.794Z,-7.80
2022-11-20T07:11:20.793Z,-7.87
2022-11-20T07:12:20.856Z,-7.87
2022-11-20T07:13:20.985Z,-7.87
2022-11-20T07:14:20.791Z,-7.87
2022-11-20T07:15:20.742Z,-7.84
2022-11-20T07:16:20.721Z,-7.84
2022-11-20T07:17:20.722Z,-7.80
2022-11-20T07:18:21.131Z,-7.80
2022-11-20T07:19:21.060Z,-7.80
2022-11-20T07:20:20.791Z,-7.78
2022-11-20T07:21:20.698Z,-7.78
2022-11-20T07:22:20.845Z,-7.78
2022-11-20T07:23:20.895Z,-7.77
2022-11-20T07:24:20.799Z,-7.77
2022-11-20T07:25:20.752Z,-7.73
2022-11-20T07:26:20.599Z,-7.73
2022-11-20T07:27:20.750Z,-7.73
2022-11-20T07:28:20.828Z,-7.74
2022-11-20T07:29:20.850Z,-7.71
2022-11-20T07:30:20.626Z,-7.70
2022-11-20T07:31:20.564Z,-7.68
2022-11-20T07:32:20.554Z,-7.70
2022-11-20T07:33:20.529Z,-7.71
2022-11-20T07:34:20.537Z,-7.66
2022-11-20T07:35:20.506Z,-7.64
2022-11-20T07:36:20.538Z,-7.66
2022-11-20T07:37:20.476Z,-7.64
2022-11-20T07:38:20.465Z,-7.59
2022-11-20T07:39:20.693Z,-7.57
2022-11-20T07:40:20.435Z,-7.56
2022-11-20T07:41:20.454Z,-7.55
2022-11-20T07:42:20.600Z,-7.52
2022-11-20T07:43:20.439Z,-7.47
2022-11-20T07:44:20.439Z,-7.46
2022-11-20T07:45:20.400Z,-7.45
2022-11-20T07:46:20.383Z,-7.39
2022-11-20T07:47:20.364Z,-7.34
2022-11-20T07:48:20.344Z,-7.29
2022-11-20T07:49:20.615Z,-7.20
2022-11-20T07:50:20.318Z,-7.18
2022-11-20T07:51:20.321Z,-7.13
2022-11-20T07:52:20.313Z,-7.10
2022-11-20T07:53:20.300Z,-7.08
2022-11-20T07:54:20.334Z,-7.05
2022-11-20T07:55:20.278Z,-7.02
2022-11-20T07:56:20.244Z,-6.96
2022-11-20T07:57:24.267Z,-6.95
2022-11-20T07:58:21.237Z,-6.95
2022-11-20T07:59:20.524Z,-6.93
2022-11-20T08:00:20.202Z,-6.84
2022-11-20T08:01:20.255Z,-6.82
2022-11-20T08:02:20.191Z,-6.79
2022-11-20T08:03:24.616Z,-6.78
2022-11-20T08:04:21.188Z,-6.77
2022-11-20T08:05:20.150Z,-6.71
2022-11-20T08:06:20.140Z,-6.71
2022-11-20T08:07:20.224Z,-6.66
2022-11-20T08:08:20.133Z,-6.63
2022-11-20T08:09:20.443Z,-6.63
2022-11-20T08:10:20.088Z,-6.60
2022-11-20T08:11:20.102Z,-6.53
2022-11-20T08:12:20.078Z,-6.52
2022-11-20T08:13:20.074Z,-6.50
2022-11-20T08:14:20.072Z,-6.45
2022-11-20T08:15:20.026Z,-6.42
2022-11-20T08:16:20.038Z,-6.41
2022-11-20T08:17:20.006Z,-6.37
2022-11-20T08:18:35.416Z,-6.37
2022-11-20T08:19:21.362Z,-6.37
2022-11-20T08:20:19.981Z,-6.32
2022-11-20T08:21:19.956Z,-6.26
2022-11-20T08:22:19.938Z,-6.23
2022-11-20T08:23:19.945Z,-6.17
2022-11-20T08:24:19.944Z,-6.19
2022-11-20T08:25:19.906Z,-6.19
2022-11-20T08:26:19.917Z,-6.17
2022-11-20T08:27:19.894Z,-6.17
2022-11-20T08:28:22.347Z,-6.16
2022-11-20T08:29:20.107Z,-6.14
2022-11-20T08:30:19.852Z,-6.08
2022-11-20T08:31:19.857Z,-6.03
2022-11-20T08:32:19.823Z,-6.03
2022-11-20T08:33:19.815Z,-6.00
2022-11-20T08:34:19.839Z,-5.91
2022-11-20T08:35:19.793Z,-5.88
2022-11-20T08:36:19.771Z,-5.85
2022-11-20T08:37:19.772Z,-5.80
2022-11-20T08:38:19.751Z,-5.80
2022-11-20T08:39:20.192Z,-5.77
2022-11-20T08:40:19.999Z,-5.73
2022-11-20T08:41:19.720Z,-5.70
2022-11-20T08:42:19.710Z,-5.67
2022-11-20T08:43:19.703Z,-5.64
2022-11-20T08:44:19.699Z,-5.62
2022-11-20T08:45:19.675Z,-5.62
2022-11-20T08:46:19.650Z,-5.62
2022-11-20T08:47:19.659Z,-5.60
2022-11-20T08:48:19.628Z,-5.60
2022-11-20T08:49:20.236Z,-5.55
2022-11-20T08:50:19.608Z,-5.51
2022-11-20T08:51:19.598Z,-5.48
2022-11-20T08:52:19.759Z,-5.41
2022-11-20T08:53:19.611Z,-5.31
2022-11-20T08:54:19.835Z,-5.27
2022-11-20T08:55:20.667Z,-5.24
2022-11-20T08:56:19.556Z,-5.23
2022-11-20T08:57:19.657Z,-5.17
2022-11-20T08:58:19.626Z,-5.23
2022-11-20T08:59:43.271Z,-5.20
2022-11-20T09:00:20.566Z,-5.20
2022-11-20T09:01:20.223Z,-5.20
2022-11-20T09:02:19.475Z,-5.17
2022-11-20T09:03:19.454Z,-5.20
2022-11-20T09:04:20.424Z,-5.11
2022-11-20T09:05:20.416Z,-5.05
2022-11-20T09:06:19.576Z,-4.99
2022-11-20T09:07:19.458Z,-4.91
2022-11-20T09:08:19.399Z,-4.90
2022-11-20T09:09:19.628Z,-4.77
2022-11-20T09:10:26.560Z,-4.76
2022-11-20T09:11:20.351Z,-4.72
2022-11-20T09:12:19.346Z,-4.62
2022-11-20T09:13:19.332Z,-4.63
2022-11-20T09:14:19.343Z,-4.62
2022-11-20T09:15:19.329Z,-4.58
2022-11-20T09:16:19.304Z,-4.54
2022-11-20T09:17:19.323Z,-4.55
2022-11-20T09:18:19.270Z,-4.52
2022-11-20T09:19:40.909Z,-4.49
2022-11-20T09:20:20.349Z,-4.46
2022-11-20T09:21:19.319Z,-4.46
2022-11-20T09:22:19.255Z,-4.46
2022-11-20T09:23:19.211Z,-4.38
2022-11-20T09:24:19.267Z,-4.36
2022-11-20T09:25:19.301Z,-4.40
2022-11-20T09:26:19.220Z,-4.36
2022-11-20T09:27:19.159Z,-4.31
2022-11-20T09:28:19.149Z,-4.26
2022-11-20T09:29:19.534Z,-4.20
2022-11-20T09:30:19.229Z,-4.17
2022-11-20T09:31:19.099Z,-4.15
2022-11-20T09:32:19.101Z,-4.10
2022-11-20T09:33:19.147Z,-4.09
2022-11-20T09:34:19.108Z,-4.06
2022-11-20T09:35:19.061Z,-4.04
2022-11-20T09:36:19.067Z,-4.01
2022-11-20T09:37:19.061Z,-3.95
2022-11-20T09:38:19.055Z,-3.88
2022-11-20T09:39:19.596Z,-3.80
2022-11-20T09:40:18.997Z,-3.70
2022-11-20T09:41:18.990Z,-3.68
2022-11-20T09:42:19.143Z,-3.68
2022-11-20T09:43:18.987Z,-3.65
2022-11-20T09:44:19.117Z,-3.64
2022-11-20T09:45:19.037Z,-3.59
2022-11-20T09:46:18.924Z,-3.52
2022-11-20T09:47:19.855Z,-3.43
2022-11-20T09:48:18.899Z,-3.30
2022-11-20T09:49:19.192Z,-3.19
2022-11-20T09:50:20.472Z,-3.13
2022-11-20T09:51:18.917Z,-3.13
2022-11-20T09:52:18.853Z,-3.15
2022-11-20T09:53:18.875Z,-3.15
2022-11-20T09:54:19.766Z,-3.12
2022-11-20T09:55:18.810Z,-3.08
2022-11-20T09:56:22.533Z,-3.12
2022-11-20T09:57:18.815Z,-3.13
2022-11-20T09:58:18.776Z,-3.01
2022-11-20T09:59:19.074Z,-2.87
2022-11-20T10:00:18.825Z,-2.77
2022-11-20T10:01:19.076Z,-2.71
2022-11-20T10:02:18.751Z,-2.66
2022-11-20T10:03:18.923Z,-2.58
2022-11-20T10:04:18.802Z,-2.51
2022-11-20T10:05:18.919Z,-2.43
2022-11-20T10:06:18.823Z,-2.33
2022-11-20T10:07:34.041Z,-2.22
2022-11-20T10:08:19.855Z,-2.13
2022-11-20T10:09:19.028Z,-2.08
2022-11-20T10:10:18.632Z,-2.03
2022-11-20T10:11:18.622Z,-1.92
2022-11-20T10:12:18.590Z,-1.77
2022-11-20T10:13:18.579Z,-1.61
2022-11-20T10:14:18.728Z,-1.43
2022-11-20T10:15:18.874Z,-1.31
2022-11-20T10:16:18.581Z,-1.13
2022-11-20T10:17:18.673Z,-0.99
2022-11-20T10:18:18.555Z,-0.80
2022-11-20T10:19:18.749Z,-0.71
2022-11-20T10:20:18.664Z,-0.67
2022-11-20T10:21:18.615Z,-0.62
2022-11-20T10:22:18.738Z,-0.60
2022-11-20T10:23:24.283Z,-0.63
2022-11-20T10:24:19.608Z,-0.59
2022-11-20T10:25:18.537Z,-0.62
2022-11-20T10:26:18.427Z,-0.60
2022-11-20T10:27:18.529Z,-0.52
2022-11-20T10:28:18.471Z,-0.50
2022-11-20T10:29:18.446Z,-0.55
2022-11-20T10:30:18.438Z,-0.56
2022-11-20T10:31:18.369Z,-0.55
2022-11-20T10:32:18.428Z,-0.53
2022-11-20T10:33:18.469Z,-0.49
2022-11-20T10:34:22.583Z,-0.45
2022-11-20T10:35:18.307Z,-0.45
2022-11-20T10:36:18.387Z,-0.41
2022-11-20T10:37:18.308Z,-0.39
2022-11-20T10:38:22.370Z,-0.34
2022-11-20T10:39:18.317Z,-0.23
2022-11-20T10:40:18.258Z,-0.16
2022-11-20T10:41:18.245Z,-0.12
2022-11-20T10:42:19.018Z,-0.08
2022-11-20T10:43:18.265Z,-0.02
2022-11-20T10:44:19.151Z,0.02
2022-11-20T10:45:18.334Z,0.04
2022-11-20T10:46:18.213Z,0.04
2022-11-20T10:47:18.283Z,0.05
2022-11-20T10:48:18.273Z,0.05
2022-11-20T10:49:18.145Z,0.12
2022-11-20T10:50:22.249Z,0.15
2022-11-20T10:51:18.111Z,0.22
2022-11-20T10:52:18.143Z,0.23
2022-11-20T10:53:18.208Z,0.26
2022-11-20T10:54:18.112Z,0.35
2022-11-20T10:55:18.388Z,0.34
2022-11-20T10:56:18.121Z,0.38
2022-11-20T10:57:18.202Z,0.45
2022-11-20T10:58:18.038Z,0.56
2022-11-20T10:59:18.161Z,0.62
2022-11-20T11:00:18.159Z,0.70
2022-11-20T11:01:18.130Z,0.78
2022-11-20T11:02:17.982Z,0.86
2022-11-20T11:03:17.963Z,0.93
2022-11-20T11:04:18.079Z,0.95
2022-11-20T11:05:18.292Z,0.89
2022-11-20T11:06:17.919Z,0.82
2022-11-20T11:07:18.042Z,0.86
2022-11-20T11:08:17.962Z,0.90
2022-11-20T11:09:17.914Z,0.99
2022-11-20T11:10:17.948Z,1.06
2022-11-20T11:11:17.926Z,1.14
2022-11-20T11:12:17.888Z,1.20
2022-11-20T11:13:17.869Z,1.26
2022-11-20T11:14:17.884Z,1.24
2022-11-20T11:15:17.867Z,1.29
2022-11-20T11:16:17.835Z,1.26
2022-11-20T11:17:17.808Z,1.24
2022-11-20T11:18:17.802Z,1.17
2022-11-20T11:19:17.782Z,1.17
2022-11-20T11:20:17.773Z,1.08
2022-11-20T11:21:17.728Z,1.11
2022-11-20T11:22:17.740Z,1.10
2022-11-20T11:23:17.874Z,1.07
2022-11-20T11:24:40.538Z,0.99
2022-11-20T11:25:18.745Z,0.98
2022-11-20T11:26:17.687Z,0.96
2022-11-20T11:27:17.988Z,0.95
2022-11-20T11:28:17.642Z,0.89
2022-11-20T11:29:17.727Z,0.84
2022-11-20T11:30:18.011Z,0.80
2022-11-20T11:31:17.597Z,0.77
2022-11-20T11:32:17.646Z,0.75
2022-11-20T11:33:17.721Z,0.74
2022-11-20T11:34:17.704Z,0.72
2022-11-20T11:35:17.593Z,0.75
2022-11-20T11:36:17.545Z,0.71
2022-11-20T11:37:17.534Z,0.72
2022-11-20T11:38:18.237Z,0.74
2022-11-20T11:39:17.553Z,0.78
2022-11-20T11:40:25.395Z,0.75
2022-11-20T11:41:19.445Z,0.75
2022-11-20T11:42:17.464Z,0.78
2022-11-20T11:43:17.610Z,0.78
2022-11-20T11:44:17.492Z,0.78
2022-11-20T11:45:17.618Z,0.71
2022-11-20T11:46:17.613Z,0.71
2022-11-20T11:47:17.517Z,0.77
2022-11-20T11:48:17.455Z,0.82
2022-11-20T11:49:17.534Z,0.89
2022-11-20T11:50:17.657Z,0.98
2022-11-20T11:51:17.431Z,1.08
2022-11-20T11:52:17.335Z,1.16
2022-11-20T11:53:17.329Z,1.24
2022-11-20T11:54:17.493Z,1.29
2022-11-20T11:55:17.324Z,1.35
2022-11-20T11:56:17.362Z,1.43
2022-11-20T11:57:17.264Z,1.47
2022-11-20T11:58:17.262Z,1.52
2022-11-20T11:59:17.291Z,1.54
2022-11-20T12:00:17.322Z,1.50
2022-11-20T12:01:17.275Z,1.47
2022-11-20T12:02:17.232Z,1.50
2022-11-20T12:03:17.343Z,1.56
2022-11-20T12:04:17.193Z,1.60
2022-11-20T12:05:17.408Z,1.57
2022-11-20T12:06:17.169Z,1.61
2022-11-20T12:07:44.726Z,1.61
2022-11-20T12:08:18.191Z,1.64
2022-11-20T12:09:17.137Z,1.67
2022-11-20T12:10:17.142Z,1.72
2022-11-20T12:11:17.353Z,1.71
2022-11-20T12:12:17.089Z,1.68
2022-11-20T12:13:17.060Z,1.71
2022-11-20T12:14:17.056Z,1.70
2022-11-20T12:15:17.114Z,1.70
2022-11-20T12:16:17.030Z,1.72
2022-11-20T12:17:17.138Z,1.71
2022-11-20T12:18:17.041Z,1.71
2022-11-20T12:19:17.020Z,1.68
2022-11-20T12:20:17.009Z,1.65
2022-11-20T12:21:17.035Z,1.57
2022-11-20T12:22:16.955Z,1.56
2022-11-20T12:23:16.928Z,1.50
2022-11-20T12:24:16.949Z,1.54
2022-11-20T12:25:16.937Z,1.56
2022-11-20T12:26:16.899Z,1.52
2022-11-20T12:27:16.897Z,1.47
2022-11-20T12:28:16.895Z,1.42
2022-11-20T12:29:16.857Z,1.44
2022-11-20T12:30:16.888Z,1.44
2022-11-20T12:31:16.986Z,1.49
2022-11-20T12:32:16.909Z,1.49
2022-11-20T12:33:16.874Z,1.52
2022-11-20T12:34:16.808Z,1.52
2022-11-20T12:35:16.828Z,1.49
2022-11-20T12:36:16.776Z,1.46
2022-11-20T12:37:16.877Z,1.44
2022-11-20T12:38:16.876Z,1.46
2022-11-20T12:39:16.734Z,1.44
2022-11-20T12:40:16.826Z,1.44
2022-11-20T12:41:16.878Z,1.46
2022-11-20T12:42:16.715Z,1.43
2022-11-20T12:43:16.676Z,1.43
2022-11-20T12:44:16.685Z,1.42
2022-11-20T12:45:16.710Z,1.44
2022-11-20T12:46:16.658Z,1.47
2022-11-20T12:47:16.727Z,1.50
2022-11-20T12:48:16.656Z,1.47
2022-11-20T12:49:16.606Z,1.49
2022-11-20T12:50:16.655Z,1.49
2022-11-20T12:51:21.071Z,1.56
2022-11-20T12:52:16.578Z,1.56
2022-11-20T12:53:16.555Z,1.60
2022-11-20T12:54:16.563Z,1.60
2022-11-20T12:55:16.650Z,1.64
2022-11-20T12:56:16.657Z,1.71
2022-11-20T12:57:16.530Z,1.71